METAR Data
IDs: Format: Raw Decoded Include TAF

Data at: 1547 UTC 24 Aug 2019

PAKV 241453Z AUTO 22004KT 10SM CLR 00/ A2982 RMK SLP102 T0000 51009 TSNO $ VIA AUTODIAL
PAKV 241353Z AUTO 22003KT 10SM CLR 01/ A2982 RMK SLP099 T0006 TSNO $ VIA AUTODIAL
PAKV 241253Z AUTO 22004KT 10SM CLR 01/ A2981 RMK SLP097 T0011 TSNO $ VIA AUTODIAL
PAKV 241153Z AUTO 21004KT 10SM CLR 02/ A2980 RMK SLP091 T0022 10100 20017 53007 TSNO $ VIA AUTODIAL
PAKV 241053Z AUTO 22005KT 10SM CLR 02/ A2979 RMK SLP089 T0017 TSNO $ VIA AUTODIAL
PAKV 240953Z AUTO 23005KT 10SM CLR 03/ A2978 RMK SLP087 T0033 TSNO $ VIA AUTODIAL
PAKV 240853Z AUTO 24003KT 10SM CLR 03/ A2978 RMK SLP084 T0028 401670028 51018 TSNO $ VIA AUTODIAL
PAKV 240753Z AUTO VRB03KT 10SM CLR 04/03 A2976 RMK SLP080 T00440033 TSNO $ VIA AUTODIAL
PAKV 240653Z AUTO 00000KT 10SM CLR 07/06 A2974 RMK SLP073 T00670056 TSNO $ VIA AUTODIAL
PAKV 240553Z AUTO 00000KT 10SM CLR 10/08 A2972 RMK SLP066 T01000078 10161 20100 52005 TSNO $ VIA AUTODIAL
PAKV 240453Z AUTO 00000KT 10SM CLR 15/07 A2972 RMK SLP064 T01500067 TSNO $ VIA AUTODIAL
PAKV 240353Z AUTO VRB04KT 10SM FEW049 FEW060 16/07 A2971 RMK SLP064 T01560067 TSNO $ VIA AUTODIAL
PAKV 240253Z AUTO 06004KT 10SM OVC050 15/06 A2971 RMK SLP062 T01500061 58001 TSNO $ VIA AUTODIAL
PAKV 240153Z AUTO 00000KT 10SM OVC055 16/06 A2971 RMK SLP061 T01560056 TSNO $ VIA AUTODIAL
PAKV 240053Z AUTO 34006KT 10SM OVC047 15/06 A2971 RMK SLP064 T01500061 TSNO $ VIA AUTODIAL
PAKV 232353Z AUTO 10SM OVC043 16/06 A2971 RMK SLP063 T01560061 10167 20111 TSNO $ VIA AUTODIAL
PAKV 232253Z AUTO VRB04KT 10SM OVC040 15/06 A2971 RMK SLP062 T01500061 TSNO $ VIA AUTODIAL
PAKV 232153Z AUTO 07004KT 10SM BKN042 15/06 A2971 RMK SLP061 T01500056 TSNO $ VIA AUTODIAL
PAKV 232053Z AUTO 08005KT 7SM FEW055 SCT075 16/05 A2970 RMK SLP060 T01560050 58001 TSNO VIA AUTODIAL
PAKV 231953Z AUTO 09003KT 10SM OVC075 13/06 A2971 RMK SLP062 T01330061 TSNO VIA AUTODIAL
PAKV 231853Z AUTO 00000KT 10SM OVC070 12/06 A2971 RMK SLP062 T01170056 TSNO VIA AUTODIAL
PAKV 231753Z AUTO 00000KT 10SM SCT080 11/07 A2971 RMK SLP061 T01110067 10111 20028 58001 TSNO VIA AUTODIAL
PAKV 231653Z AUTO 00000KT 10SM CLR 06/04 A2971 RMK SLP062 T00610044 TSNO VIA AUTODIAL
PAKV 231553Z AUTO 00000KT 10SM CLR 03/03 A2971 RMK SLP063 T00330028 TSNO VIA AUTODIAL
PAKV 231453Z AUTO 21004KT 10SM CLR 04/03 A2971 RMK SLP062 T00440033 52004 TSNO VIA AUTODIAL
PAKV 231353Z AUTO 24005KT 10SM CLR 03/02 A2970 RMK SLP060 T00330022 TSNO VIA AUTODIAL
PAKV 231253Z AUTO 00000KT 10SM CLR 03/03 A2970 RMK SLP060 T00330028 TSNO VIA AUTODIAL
PAKV 231153Z AUTO 00000KT 10SM CLR 07/05 A2970 RMK SLP058 T00670050 10111 20067 50000 TSNO VIA AUTODIAL
PAKV 231053Z AUTO 22004KT 10SM SCT060 08/06 A2970 RMK SLP058 T00780056 TSNO VIA AUTODIAL
PAKV 230953Z AUTO 00000KT 10SM CLR 07/06 A2970 RMK SLP059 T00720056 TSNO VIA AUTODIAL
PAKV 230853Z AUTO 23003KT 10SM FEW065 08/06 A2970 RMK SLP058 T00780056 401830050 53006 TSNO VIA AUTODIAL
PAKV 230753Z AUTO VRB03KT 10SM BKN065 09/06 A2969 RMK SLP054 T00940056 TSNO VIA AUTODIAL
PAKV 230653Z AUTO 00000KT 10SM BKN065 11/08 A2968 RMK SLP052 T01060083 TSNO VIA AUTODIAL
PAKV 230553Z AUTO 00000KT 8SM CLR 11/10 A2968 RMK SLP052 T01110100 10183 20111 53002 TSNO VIA AUTODIAL
PAKV 230453Z AUTO 00000KT 10SM OVC070 14/11 A2967 RMK SLP049 T01440111 TSNO VIA AUTODIAL
PAKV 230353Z AUTO 00000KT 10SM SCT080 17/08 A2967 RMK SLP048 T01670083 TSNO VIA AUTODIAL